• Join FlightAware (Why Join?)
  • Login
  • US Flag 
06:55PM EST


 

Airport Tracker/Info


-or-


 

Live Flight TrackerFlight Track Log ✈ CSZ9795 ✈ 27-Aug-2014 ✈ ZSWX / WUX - VMMC / MFM

Flight Track Log - Related Links

Times and Time Zones

All times are in EDT time to prevent confusion due to time zone crossing. See the CSZ9795 flight status page for this flight to view local times or setup timezone preferences in your user account.

Time Position Orientation Groundspeed Altitude Reporting Facility
EDT Latitude Longitude Course Direction KTS MPH feet Rate Location/Type
08:58PM 31.0076 120.0358 215° Southwest  Level Estimated
08:59PM 30.9263 119.9706 215° Southwest  Level Estimated
09:00PM 30.8450 119.9055 215° Southwest  Level Estimated
09:01PM 30.7637 119.8405 214° Southwest  Level Estimated
09:02PM 30.6823 119.7756 214° Southwest  Level Estimated
09:03PM 30.6009 119.7108 214° Southwest  Level Estimated
09:04PM 30.5195 119.6461 214° Southwest  Level Estimated
09:05PM 30.4380 119.5816 214° Southwest  Level Estimated
09:06PM 30.3565 119.5172 214° Southwest  Level Estimated
09:07PM 30.2750 119.4528 214° Southwest  Level Estimated
09:08PM 30.1935 119.3886 214° Southwest  Level Estimated
09:09PM 30.1119 119.3244 214° Southwest  Level Estimated
09:10PM 30.0303 119.2604 214° Southwest  Level Estimated
09:11PM 29.9486 119.1965 214° Southwest  Level Estimated
09:12PM 29.8669 119.1327 214° Southwest  Level Estimated
09:13PM 29.7852 119.0690 214° Southwest  Level Estimated
09:14PM 29.7035 119.0054 214° Southwest  Level Estimated
09:15PM 29.6217 118.9419 214° Southwest  Level Estimated
09:16PM 29.5399 118.8785 214° Southwest  Level Estimated
09:17PM 29.4581 118.8152 214° Southwest  Level Estimated
09:18PM 29.3763 118.7520 214° Southwest  Level Estimated
09:19PM 29.2944 118.6889 214° Southwest  Level Estimated
09:20PM 29.2125 118.6259 214° Southwest  Level Estimated
09:21PM 29.1305 118.5630 214° Southwest  Level Estimated
09:22PM 29.0485 118.5002 214° Southwest  Level Estimated
09:23PM 28.9665 118.4375 214° Southwest  Level Estimated
09:24PM 28.8845 118.3749 214° Southwest  Level Estimated
09:25PM 28.8024 118.3124 214° Southwest  Level Estimated
09:26PM 28.7203 118.2500 214° Southwest  Level Estimated
09:27PM 28.6382 118.1877 214° Southwest  Level Estimated
09:28PM 28.5561 118.1255 214° Southwest  Level Estimated
09:29PM 28.4739 118.0634 214° Southwest  Level Estimated
09:30PM 28.3917 118.0014 214° Southwest  Level Estimated
09:31PM 28.3095 117.9395 214° Southwest  Level Estimated
09:32PM 28.2272 117.8777 214° Southwest  Level Estimated
09:33PM 28.1449 117.8160 213° Southwest  Level Estimated
09:34PM 28.0626 117.7544 213° Southwest  Level Estimated
09:35PM 27.9802 117.6928 213° Southwest  Level Estimated
09:36PM 27.8979 117.6314 213° Southwest  Level Estimated
09:37PM 27.8155 117.5701 213° Southwest  Level Estimated
09:38PM 27.7330 117.5088 213° Southwest  Level Estimated
09:39PM 27.6506 117.4476 213° Southwest  Level Estimated
09:40PM 27.5681 117.3866 213° Southwest  Level Estimated
09:41PM 27.4856 117.3256 213° Southwest  Level Estimated
09:42PM 27.4031 117.2647 213° Southwest  Level Estimated
09:43PM 27.3205 117.2039 213° Southwest  Level Estimated
09:44PM 27.2379 117.1432 213° Southwest  Level Estimated
09:45PM 27.1553 117.0826 213° Southwest  Level Estimated
09:46PM 27.0727 117.0221 213° Southwest  Level Estimated
09:47PM 26.9900 116.9617 213° Southwest  Level Estimated
09:48PM 26.9073 116.9013 213° Southwest  Level Estimated
09:49PM 26.8246 116.8411 213° Southwest  Level Estimated
09:50PM 26.7419 116.7809 213° Southwest  Level Estimated
09:51PM 26.6591 116.7208 213° Southwest  Level Estimated
09:52PM 26.5763 116.6608 213° Southwest  Level Estimated
09:53PM 26.4935 116.6009 213° Southwest  Level Estimated
09:54PM 26.4107 116.5411 213° Southwest  Level Estimated
09:55PM 26.3278 116.4814 213° Southwest  Level Estimated
09:56PM 26.2449 116.4217 213° Southwest  Level Estimated
09:57PM 26.1620 116.3622 213° Southwest  Level Estimated
09:58PM 26.0791 116.3027 213° Southwest  Level Estimated
09:59PM 25.9961 116.2433 213° Southwest  Level Estimated
10:00PM 25.9131 116.1840 213° Southwest  Level Estimated
10:01PM 25.8301 116.1248 213° Southwest  Level Estimated
10:02PM 25.7471 116.0656 213° Southwest  Level Estimated
10:03PM 25.6640 116.0066 213° Southwest  Level Estimated
10:04PM 25.5809 115.9476 213° Southwest  Level Estimated
10:05PM 25.4978 115.8887 213° Southwest  Level Estimated
10:06PM 25.4147 115.8299 213° Southwest  Level Estimated
10:07PM 25.3315 115.7711 213° Southwest  Level Estimated
10:08PM 25.2484 115.7125 213° Southwest  Level Estimated
10:09PM 25.1652 115.6539 213° Southwest  Level Estimated
10:10PM 25.0819 115.5954 212° Southwest  Level Estimated
10:11PM 24.9987 115.5370 212° Southwest  Level Estimated
10:12PM 24.9154 115.4787 212° Southwest  Level Estimated
10:13PM 24.8321 115.4204 212° Southwest  Level Estimated
10:14PM 24.7488 115.3622 212° Southwest  Level Estimated
10:15PM 24.6655 115.3041 212° Southwest  Level Estimated
10:16PM 24.5821 115.2461 212° Southwest  Level Estimated
10:17PM 24.4987 115.1881 212° Southwest  Level Estimated
10:18PM 24.4153 115.1303 212° Southwest  Level Estimated
10:19PM 24.3319 115.0725 212° Southwest  Level Estimated
10:20PM 24.2485 115.0148 212° Southwest  Level Estimated
10:21PM 24.1650 114.9571 212° Southwest  Level Estimated
10:22PM 24.0815 114.8996 212° Southwest  Level Estimated
10:23PM 23.9980 114.8421 212° Southwest  Level Estimated
10:24PM 23.9145 114.7847 212° Southwest  Level Estimated
10:25PM 23.8309 114.7273 212° Southwest  Level Estimated
10:26PM 23.7473 114.6701 212° Southwest  Level Estimated
10:27PM 23.6637 114.6129 212° Southwest  Level Estimated
10:28PM 23.5801 114.5557 212° Southwest  Level Estimated
10:29PM 23.4965 114.4987 212° Southwest  Level Estimated
10:30PM 23.4128 114.4417 212° Southwest  Level Estimated
10:31PM 23.3291 114.3848 212° Southwest  Level Estimated
10:32PM 23.2454 114.3280 212° Southwest  Level Estimated
10:33PM 23.1617 114.2712 212° Southwest  Level Estimated
10:34PM 23.0780 114.2145 212° Southwest  Level Estimated
10:35PM 22.9942 114.1579 212° Southwest  Level Estimated
10:36PM 22.9104 114.1014 212° Southwest  Level Estimated
10:37PM 22.8266 114.0449 212° Southwest  Level Estimated
10:38PM 22.7428 113.9885 212° Southwest  Level Estimated
10:39PM 22.6590 113.9321 212° Southwest  Level Estimated
10:40PM 22.5751 113.8759 212° Southwest  Level Estimated
10:41PM 22.4912 113.8197 212° Southwest  Level Estimated
10:42PM 22.4073 113.7635 212° Southwest  Level Estimated
10:43PM 22.3234 113.7075 212° Southwest  Level Estimated
10:44PM 22.2395 113.6515 212° Southwest  Level Estimated
10:45PM 22.1555 113.5955 212° Southwest  Level Estimated
10:46PM 22.1496 113.5916 212° Southwest  Level Estimated
10:47PM 22.1496 113.5916 North  Level Estimated
10:48PM 22.1496 113.5916 North  Level Estimated
10:49PM 22.1496 113.5916 North  Level Estimated
10:50PM 22.1496 113.5916 North  Level Estimated
10:51PM 22.1496 113.5916 North  Level Estimated
10:52PM 22.1496 113.5916 North  Level Estimated
10:53PM 22.1496 113.5916 North  Level Estimated
10:54PM 22.1496 113.5916 North  Level Estimated
10:55PM 22.1496 113.5916 North  Level Estimated
10:56PM 22.1496 113.5916 North  Level Estimated
10:57PM 22.1496 113.5916 North  Level Estimated
10:58PM 22.1496 113.5916 North  Level Estimated
10:59PM 22.1496 113.5916 North  Level Estimated
11:00PM 22.1496 113.5916 North  Level Estimated
11:01PM 22.1496 113.5916 North  Level Estimated